createdAt,value
2022-11-19T00:01:34.287Z,3.83
2022-11-19T00:04:02.092Z,4.57
2022-11-19T00:06:29.887Z,4.93
2022-11-19T00:08:57.684Z,4.30
2022-11-19T00:11:45.612Z,4.30
2022-11-19T00:14:15.430Z,5.27
2022-11-19T00:16:45.284Z,5.17
2022-11-19T00:19:14.466Z,4.20
2022-11-19T00:21:42.248Z,4.70
2022-11-19T00:24:10.353Z,4.80
2022-11-19T00:26:39.488Z,4.77
2022-11-19T00:29:07.294Z,5.80
2022-11-19T00:31:35.052Z,5.33
2022-11-19T00:34:02.999Z,5.10
2022-11-19T00:36:30.957Z,5.03
2022-11-19T00:38:58.747Z,5.93
2022-11-19T00:41:26.517Z,5.13
2022-11-19T00:43:55.693Z,6.00
2022-11-19T00:46:25.839Z,4.90
2022-11-19T00:48:56.209Z,4.87
2022-11-19T00:51:25.810Z,5.33
2022-11-19T00:53:53.645Z,5.23
2022-11-19T00:56:23.403Z,4.83
2022-11-19T00:58:51.907Z,4.17
2022-11-19T01:01:23.234Z,3.73
2022-11-19T01:03:51.263Z,3.60
2022-11-19T01:06:22.563Z,3.43
2022-11-19T01:08:51.948Z,3.93
2022-11-19T01:11:23.320Z,4.90
2022-11-19T01:13:51.348Z,4.33
2022-11-19T01:16:22.604Z,4.60
2022-11-19T01:18:51.230Z,4.13
2022-11-19T01:21:20.145Z,4.60
2022-11-19T01:23:48.643Z,5.00
2022-11-19T01:26:17.600Z,5.30
2022-11-19T01:28:46.115Z,4.73
2022-11-19T01:31:16.003Z,4.50
2022-11-19T01:33:45.507Z,4.70
2022-11-19T01:36:16.261Z,4.33
2022-11-19T01:38:50.383Z,4.63
2022-11-19T01:41:18.590Z,4.90
2022-11-19T01:43:47.918Z,4.87
2022-11-19T01:46:17.799Z,4.93
2022-11-19T01:48:50.583Z,4.73
2022-11-19T01:51:22.549Z,4.87
2022-11-19T01:53:52.308Z,5.10
2022-11-19T01:56:21.950Z,4.80
2022-11-19T01:58:53.397Z,4.60
2022-11-19T02:01:22.986Z,4.23
2022-11-19T02:03:53.521Z,4.27
2022-11-19T02:06:21.582Z,5.00
2022-11-19T02:08:51.480Z,4.53
2022-11-19T02:11:43.880Z,4.87
2022-11-19T02:14:33.874Z,4.10
2022-11-19T02:17:10.651Z,3.80
2022-11-19T02:20:06.746Z,3.93
2022-11-19T02:22:58.032Z,3.93
2022-11-19T02:25:37.508Z,3.80
2022-11-19T02:28:27.176Z,4.70
2022-11-19T02:31:03.597Z,4.43
2022-11-19T02:33:38.224Z,5.20
2022-11-19T02:36:12.275Z,4.80
2022-11-19T02:38:45.675Z,4.70
2022-11-19T02:41:37.245Z,5.17
2022-11-19T02:44:32.110Z,4.73
2022-11-19T02:47:05.094Z,5.00
2022-11-19T02:49:34.788Z,5.17
2022-11-19T02:52:04.224Z,5.10
2022-11-19T02:54:32.083Z,5.13
2022-11-19T02:56:59.985Z,4.77
2022-11-19T02:59:53.140Z,5.07
2022-11-19T03:02:41.243Z,4.57
2022-11-19T03:05:14.128Z,4.53
2022-11-19T03:07:42.083Z,4.10
2022-11-19T03:10:12.804Z,4.20
2022-11-19T03:12:47.107Z,4.70
2022-11-19T03:15:43.620Z,5.10
2022-11-19T03:18:17.160Z,4.63
2022-11-19T03:20:50.995Z,4.90
2022-11-19T03:23:23.557Z,4.03
2022-11-19T03:25:55.213Z,4.10
2022-11-19T03:28:26.548Z,3.90
2022-11-19T03:30:56.866Z,3.80
2022-11-19T03:33:30.876Z,4.30
2022-11-19T03:36:02.976Z,3.63
2022-11-19T03:38:34.049Z,3.70
2022-11-19T03:41:04.663Z,3.43
2022-11-19T03:43:37.511Z,3.33
2022-11-19T03:46:08.468Z,3.23
2022-11-19T03:48:38.987Z,2.90
2022-11-19T03:51:13.374Z,3.53
2022-11-19T03:53:41.320Z,2.90
2022-11-19T03:56:11.554Z,3.03
2022-11-19T03:58:40.591Z,3.30
2022-11-19T04:01:08.952Z,2.97
2022-11-19T04:03:38.307Z,2.37
2022-11-19T04:06:06.356Z,3.37
2022-11-19T04:08:34.260Z,2.70
2022-11-19T04:13:28.984Z,3.00
2022-11-19T04:15:56.851Z,2.93
2022-11-19T04:18:24.719Z,3.00
2022-11-19T04:20:53.945Z,3.03
2022-11-19T04:23:21.859Z,3.43
2022-11-19T04:25:49.705Z,3.83
2022-11-19T04:28:17.549Z,2.80
2022-11-19T04:30:45.417Z,2.90
2022-11-19T04:33:13.504Z,2.83
2022-11-19T04:35:41.382Z,2.63
2022-11-19T04:38:10.626Z,3.53
2022-11-19T04:40:39.073Z,4.03
2022-11-19T04:43:06.978Z,2.80
2022-11-19T04:45:34.862Z,3.43
2022-11-19T04:48:02.749Z,3.70
2022-11-19T04:50:30.628Z,3.63
2022-11-19T04:52:59.996Z,3.83
2022-11-19T04:55:29.257Z,3.57
2022-11-19T04:57:57.127Z,3.57
2022-11-19T05:00:25.188Z,3.87
2022-11-19T05:02:53.104Z,3.90
2022-11-19T05:05:20.993Z,3.83
2022-11-19T05:07:48.868Z,3.50
2022-11-19T05:10:16.822Z,4.80
2022-11-19T05:12:46.064Z,4.00
2022-11-19T05:15:14.061Z,4.00
2022-11-19T05:17:41.967Z,4.17
2022-11-19T05:20:10.674Z,3.90
2022-11-19T05:22:38.552Z,4.20
2022-11-19T05:25:07.176Z,4.53
2022-11-19T05:27:35.289Z,4.60
2022-11-19T05:30:05.430Z,4.97
2022-11-19T05:32:33.322Z,5.33
2022-11-19T05:35:01.182Z,5.10
2022-11-19T05:37:29.080Z,5.43
2022-11-19T05:39:57.011Z,5.63
2022-11-19T05:42:24.916Z,5.87
2022-11-19T05:44:52.792Z,5.83
2022-11-19T05:47:21.995Z,5.47
2022-11-19T05:49:49.892Z,6.73
2022-11-19T05:52:17.772Z,6.07
2022-11-19T05:54:45.624Z,5.43
2022-11-19T05:57:13.482Z,6.53
2022-11-19T05:59:44.025Z,7.37
2022-11-19T06:02:12.196Z,6.37
2022-11-19T06:04:41.412Z,6.97
2022-11-19T06:07:09.370Z,6.40
2022-11-19T06:09:37.242Z,6.33
2022-11-19T06:12:05.578Z,6.27
2022-11-19T06:14:33.452Z,7.37
2022-11-19T06:17:01.716Z,7.70
2022-11-19T06:19:29.612Z,7.73
2022-11-19T06:21:58.923Z,7.70
2022-11-19T06:24:27.091Z,8.07
2022-11-19T06:26:54.945Z,8.00
2022-11-19T06:29:22.929Z,8.43
2022-11-19T06:31:50.880Z,7.70
2022-11-19T06:34:18.753Z,8.30
2022-11-19T06:36:50.493Z,8.20
2022-11-19T06:39:20.936Z,8.17
2022-11-19T06:41:49.413Z,7.63
2022-11-19T06:44:17.325Z,7.20
2022-11-19T06:46:45.182Z,7.37
2022-11-19T06:49:18.359Z,7.23
2022-11-19T06:51:47.702Z,7.33
2022-11-19T06:54:15.665Z,7.87
2022-11-19T06:56:44.876Z,7.50
2022-11-19T06:59:12.762Z,7.73
2022-11-19T07:01:40.663Z,7.33
2022-11-19T07:04:08.560Z,7.67
2022-11-19T07:06:36.446Z,7.53
2022-11-19T07:09:04.320Z,8.10
2022-11-19T07:11:32.308Z,8.70
2022-11-19T07:14:03.446Z,8.80
2022-11-19T07:16:33.262Z,7.83
2022-11-19T07:19:02.792Z,7.73
2022-11-19T07:21:31.736Z,7.43
2022-11-19T07:24:01.437Z,7.53
2022-11-19T07:26:29.300Z,7.90
2022-11-19T07:29:01.753Z,8.53
2022-11-19T07:31:34.088Z,7.73
2022-11-19T07:34:02.654Z,8.07
2022-11-19T07:36:30.530Z,8.07
2022-11-19T07:38:59.000Z,7.93
2022-11-19T07:41:44.339Z,7.83
2022-11-19T07:44:12.207Z,8.97
2022-11-19T07:46:41.440Z,8.83
2022-11-19T07:49:09.388Z,9.77
2022-11-19T07:51:37.322Z,8.87
2022-11-19T07:54:05.619Z,8.70
2022-11-19T07:56:33.574Z,8.53
2022-11-19T07:59:01.856Z,8.80
2022-11-19T08:01:29.864Z,9.20
2022-11-19T08:03:59.194Z,8.30
2022-11-19T08:06:29.747Z,8.03
2022-11-19T08:08:57.950Z,7.43
2022-11-19T08:11:26.081Z,7.93
2022-11-19T08:13:54.071Z,7.67
2022-11-19T08:16:36.308Z,7.00
2022-11-19T08:19:08.108Z,7.20
2022-11-19T08:21:36.225Z,8.37
2022-11-19T08:24:04.664Z,7.63
2022-11-19T08:26:32.558Z,8.20
2022-11-19T08:29:00.476Z,8.30
2022-11-19T08:31:28.526Z,8.37
2022-11-19T08:33:56.719Z,8.73
2022-11-19T08:36:25.977Z,8.30
2022-11-19T08:38:53.880Z,8.53
2022-11-19T08:41:39.139Z,8.37
2022-11-19T08:44:07.101Z,8.90
2022-11-19T08:46:34.984Z,7.97
2022-11-19T08:49:02.843Z,8.67
2022-11-19T08:51:32.109Z,8.50
2022-11-19T08:54:00.244Z,8.90
2022-11-19T08:56:28.412Z,7.30
2022-11-19T08:59:01.313Z,8.77
2022-11-19T09:01:30.584Z,9.17
2022-11-19T09:03:58.579Z,9.20
2022-11-19T09:06:26.817Z,8.43
2022-11-19T09:08:56.051Z,8.53
2022-11-19T09:11:24.316Z,7.80
2022-11-19T09:13:52.483Z,8.63
2022-11-19T09:16:20.377Z,8.47
2022-11-19T09:18:48.272Z,8.83
2022-11-19T09:21:16.237Z,9.37
2022-11-19T09:23:44.164Z,9.00
2022-11-19T09:26:15.321Z,9.27
2022-11-19T09:28:44.172Z,9.30
2022-11-19T09:31:14.392Z,8.23
2022-11-19T09:33:44.360Z,8.57
2022-11-19T09:36:13.834Z,8.47
2022-11-19T09:38:42.000Z,8.97
2022-11-19T09:41:30.257Z,8.77
2022-11-19T09:44:08.022Z,8.80
2022-11-19T09:46:45.586Z,8.50
2022-11-19T09:49:18.451Z,8.80
2022-11-19T09:51:54.020Z,8.00
2022-11-19T09:54:23.450Z,9.17
2022-11-19T09:56:59.208Z,7.37
2022-11-19T09:59:36.448Z,7.33
2022-11-19T10:02:13.877Z,7.17
2022-11-19T10:04:41.866Z,8.30
2022-11-19T10:07:18.988Z,8.27
2022-11-19T10:10:01.561Z,8.27
2022-11-19T10:13:11.863Z,8.10
2022-11-19T10:15:51.427Z,7.77
2022-11-19T10:18:25.576Z,7.97
2022-11-19T10:20:59.805Z,8.23
2022-11-19T10:23:36.896Z,8.43
2022-11-19T10:26:10.538Z,7.53
2022-11-19T10:28:42.876Z,8.20
2022-11-19T10:31:17.011Z,7.97
2022-11-19T10:33:51.252Z,7.00
2022-11-19T10:36:24.804Z,7.77
2022-11-19T10:38:58.171Z,7.63
2022-11-19T10:41:35.008Z,7.10
2022-11-19T10:44:37.111Z,7.77
2022-11-19T10:47:06.532Z,7.43
2022-11-19T10:49:39.469Z,7.30
2022-11-19T10:52:10.408Z,6.90
2022-11-19T10:54:39.540Z,8.00
2022-11-19T10:57:14.152Z,7.30
2022-11-19T10:59:44.138Z,7.53
2022-11-19T11:02:27.840Z,7.57
2022-11-19T11:05:09.591Z,7.17
2022-11-19T11:07:51.068Z,7.47
2022-11-19T11:10:46.252Z,8.03
2022-11-19T11:13:46.691Z,7.63
2022-11-19T11:16:18.979Z,6.90
2022-11-19T11:18:47.697Z,7.97
2022-11-19T11:21:34.501Z,8.20
2022-11-19T11:24:05.420Z,6.87
2022-11-19T11:26:35.104Z,6.70
2022-11-19T11:29:05.368Z,8.23
2022-11-19T11:31:37.264Z,7.63
2022-11-19T11:34:07.022Z,7.23
2022-11-19T11:36:38.911Z,7.13
2022-11-19T11:39:07.180Z,7.80
2022-11-19T11:42:05.435Z,8.17
2022-11-19T11:44:28.579Z,7.83
2022-11-19T11:47:00.143Z,6.83
2022-11-19T11:49:31.787Z,7.93
2022-11-19T11:52:06.799Z,8.10
2022-11-19T11:54:34.847Z,7.40
2022-11-19T11:57:19.804Z,7.53
2022-11-19T11:59:47.920Z,7.03
2022-11-19T12:02:30.417Z,7.50
2022-11-19T12:05:01.932Z,7.00
2022-11-19T12:07:50.546Z,6.50
2022-11-19T12:10:29.800Z,8.07
2022-11-19T12:13:15.545Z,7.63
2022-11-19T12:15:55.336Z,7.80
2022-11-19T12:18:35.737Z,6.80
2022-11-19T12:21:11.966Z,7.13
2022-11-19T12:23:54.632Z,7.20
2022-11-19T12:26:31.671Z,6.33
2022-11-19T12:29:17.831Z,8.00
2022-11-19T12:31:59.259Z,7.27
2022-11-19T12:35:01.791Z,6.93
2022-11-19T12:37:43.489Z,6.57
2022-11-19T12:40:24.192Z,6.43
2022-11-19T12:43:04.149Z,7.00
2022-11-19T12:45:40.423Z,7.33
2022-11-19T12:48:32.517Z,7.87
2022-11-19T12:51:12.032Z,7.77
2022-11-19T12:54:08.229Z,6.77
2022-11-19T12:56:47.687Z,6.50
2022-11-19T12:59:31.103Z,7.30
2022-11-19T13:02:03.864Z,7.37
2022-11-19T13:04:40.421Z,7.37
2022-11-19T13:07:15.324Z,7.53
2022-11-19T13:09:47.502Z,7.47
2022-11-19T13:12:18.224Z,7.93
2022-11-19T13:14:54.598Z,7.97
2022-11-19T13:17:26.105Z,7.67
2022-11-19T13:19:58.972Z,7.93
2022-11-19T13:22:33.429Z,7.63
2022-11-19T13:25:06.431Z,8.80
2022-11-19T13:27:34.396Z,8.00
2022-11-19T13:30:04.838Z,7.37
2022-11-19T13:32:39.611Z,7.73
2022-11-19T13:35:17.381Z,7.97
2022-11-19T13:37:58.521Z,8.27
2022-11-19T13:40:30.507Z,7.20
2022-11-19T13:43:31.475Z,8.67
2022-11-19T13:46:07.835Z,7.60
2022-11-19T13:48:41.705Z,7.30
2022-11-19T13:51:20.736Z,6.83
2022-11-19T13:53:50.291Z,7.17
2022-11-19T13:56:18.645Z,7.60
2022-11-19T13:58:49.029Z,6.80
2022-11-19T14:01:45.448Z,7.77
2022-11-19T14:04:27.755Z,7.17
2022-11-19T14:07:13.357Z,7.83
2022-11-19T14:09:50.805Z,7.43
2022-11-19T14:12:50.697Z,7.83
2022-11-19T14:15:45.240Z,6.87
2022-11-19T14:18:42.349Z,6.53
2022-11-19T14:22:10.212Z,6.40
2022-11-19T14:25:17.041Z,5.73
2022-11-19T14:27:45.737Z,6.47
2022-11-19T14:30:19.259Z,5.97
2022-11-19T14:32:50.112Z,6.17
2022-11-19T14:35:42.190Z,5.57
2022-11-19T14:38:38.963Z,5.40
2022-11-19T14:41:36.079Z,5.80
2022-11-19T14:44:10.636Z,5.37
2022-11-19T14:46:41.436Z,4.97
2022-11-19T14:49:25.467Z,5.07
2022-11-19T14:51:56.226Z,5.37
2022-11-19T14:54:32.441Z,5.43
2022-11-19T14:57:05.775Z,6.07
2022-11-19T14:59:37.639Z,6.33
2022-11-19T15:02:17.022Z,5.77
2022-11-19T15:04:53.176Z,5.90
2022-11-19T15:07:35.355Z,6.07
2022-11-19T15:10:10.941Z,5.43
2022-11-19T15:12:50.412Z,5.83
2022-11-19T15:15:41.840Z,5.60
2022-11-19T15:18:25.787Z,5.70
2022-11-19T15:21:09.700Z,6.47
2022-11-19T15:23:46.837Z,5.30
2022-11-19T15:26:22.837Z,6.17
2022-11-19T15:29:06.937Z,5.17
2022-11-19T15:32:00.552Z,5.73
2022-11-19T15:35:10.151Z,5.40
2022-11-19T15:37:46.813Z,5.03
2022-11-19T15:40:19.276Z,5.27
2022-11-19T15:42:54.051Z,5.33
2022-11-19T15:45:25.291Z,5.10
2022-11-19T15:47:58.477Z,4.97
2022-11-19T15:50:28.971Z,5.60
2022-11-19T15:53:01.323Z,4.70
2022-11-19T15:55:31.798Z,4.97
2022-11-19T15:58:03.763Z,5.63
2022-11-19T16:00:44.293Z,6.03
2022-11-19T16:03:12.788Z,5.47
2022-11-19T16:05:44.076Z,5.67
2022-11-19T16:08:15.127Z,5.20
2022-11-19T16:10:47.265Z,4.47
2022-11-19T16:13:40.563Z,5.60
2022-11-19T16:16:39.375Z,5.27
2022-11-19T16:19:07.303Z,5.93
2022-11-19T16:21:38.932Z,5.77
2022-11-19T16:24:31.769Z,6.20
2022-11-19T16:27:01.988Z,6.13
2022-11-19T16:29:30.665Z,6.60
2022-11-19T16:32:00.523Z,7.17
2022-11-19T16:34:32.173Z,7.23
2022-11-19T16:37:00.404Z,6.27
2022-11-19T16:39:30.662Z,6.87
2022-11-19T16:42:18.166Z,6.70
2022-11-19T16:44:48.032Z,6.43
2022-11-19T16:47:22.776Z,5.97
2022-11-19T16:50:02.855Z,6.00
2022-11-19T16:52:41.248Z,5.40
2022-11-19T16:55:40.299Z,4.90
2022-11-19T16:58:17.190Z,4.73
2022-11-19T17:00:48.741Z,5.17
2022-11-19T17:03:36.939Z,5.73
2022-11-19T17:06:05.996Z,5.67
2022-11-19T17:08:36.357Z,5.70
2022-11-19T17:11:36.463Z,6.23
2022-11-19T17:14:21.024Z,6.50
2022-11-19T17:16:49.983Z,6.10
2022-11-19T17:19:27.501Z,5.43
2022-11-19T17:22:02.258Z,5.80
2022-11-19T17:24:33.147Z,6.10
2022-11-19T17:27:01.194Z,5.67
2022-11-19T17:29:29.069Z,6.07
2022-11-19T17:31:57.521Z,6.00
2022-11-19T17:34:32.033Z,5.63
2022-11-19T17:37:00.157Z,5.57
2022-11-19T17:39:28.052Z,5.30
2022-11-19T17:42:14.602Z,5.70
2022-11-19T17:44:42.894Z,5.57
2022-11-19T17:47:21.647Z,6.40
2022-11-19T17:49:52.138Z,6.57
2022-11-19T17:52:23.268Z,6.13
2022-11-19T17:54:51.491Z,5.83
2022-11-19T17:57:19.395Z,6.30
2022-11-19T17:59:47.624Z,5.80
2022-11-19T18:02:16.959Z,6.90
2022-11-19T18:04:45.732Z,6.33
2022-11-19T18:07:15.553Z,6.40
2022-11-19T18:09:43.670Z,6.33
2022-11-19T18:12:15.427Z,6.60
2022-11-19T18:14:43.643Z,6.60
2022-11-19T18:17:12.524Z,6.17
2022-11-19T18:19:40.373Z,6.50
2022-11-19T18:22:12.897Z,6.50
2022-11-19T18:24:42.148Z,7.00
2022-11-19T18:27:10.020Z,6.93
2022-11-19T18:29:38.065Z,7.23
2022-11-19T18:32:06.379Z,7.70
2022-11-19T18:34:35.136Z,7.33
2022-11-19T18:37:03.036Z,6.73
2022-11-19T18:39:30.875Z,6.90
2022-11-19T18:42:00.110Z,6.90
2022-11-19T18:44:37.396Z,7.40
2022-11-19T18:47:07.083Z,7.33
2022-11-19T18:49:35.493Z,7.67
2022-11-19T18:52:04.378Z,7.07
2022-11-19T18:54:32.614Z,7.83
2022-11-19T18:57:04.455Z,7.83
2022-11-19T18:59:32.752Z,7.00
2022-11-19T19:02:00.634Z,8.10
2022-11-19T19:04:28.653Z,7.53
2022-11-19T19:06:56.724Z,8.27
2022-11-19T19:09:24.961Z,7.67
2022-11-19T19:12:13.396Z,7.47
2022-11-19T19:14:43.867Z,7.80
2022-11-19T19:17:12.340Z,7.70
2022-11-19T19:19:40.277Z,8.97
2022-11-19T19:22:08.662Z,7.90
2022-11-19T19:24:36.681Z,8.77
2022-11-19T19:27:05.312Z,8.07
2022-11-19T19:29:33.224Z,7.87
2022-11-19T19:32:02.700Z,7.47
2022-11-19T19:34:30.948Z,8.03
2022-11-19T19:36:58.860Z,8.30
2022-11-19T19:39:26.886Z,8.20
2022-11-19T19:41:54.879Z,7.67
2022-11-19T19:44:22.768Z,8.30
2022-11-19T19:46:50.717Z,8.60
2022-11-19T19:49:20.452Z,7.97
2022-11-19T19:51:48.695Z,7.47
2022-11-19T19:54:16.816Z,8.70
2022-11-19T19:56:44.720Z,8.67
2022-11-19T19:59:14.057Z,7.90
2022-11-19T20:01:47.230Z,7.77
2022-11-19T20:04:15.222Z,8.23
2022-11-19T20:06:47.374Z,7.73
2022-11-19T20:09:15.478Z,9.13
2022-11-19T20:11:43.357Z,8.30
2022-11-19T20:14:11.453Z,8.10
2022-11-19T20:16:41.741Z,8.30
2022-11-19T20:19:13.081Z,7.97
2022-11-19T20:21:41.113Z,7.50
2022-11-19T20:24:12.861Z,8.77
2022-11-19T20:26:42.024Z,7.97
2022-11-19T20:29:12.956Z,7.57
2022-11-19T20:31:41.557Z,7.60
2022-11-19T20:34:11.907Z,8.17
2022-11-19T20:36:39.863Z,8.13
2022-11-19T20:39:07.969Z,7.60
2022-11-19T20:41:55.246Z,7.20
2022-11-19T20:44:23.467Z,8.27
2022-11-19T20:46:53.350Z,7.70
2022-11-19T20:49:23.469Z,7.23
2022-11-19T20:51:52.483Z,8.20
2022-11-19T20:54:21.327Z,6.73
2022-11-19T20:56:51.704Z,6.80
2022-11-19T20:59:20.538Z,7.10
2022-11-19T21:01:49.378Z,7.13
2022-11-19T21:04:17.589Z,8.23
2022-11-19T21:06:45.641Z,8.20
2022-11-19T21:09:14.807Z,7.50
2022-11-19T21:11:42.695Z,8.57
2022-11-19T21:14:11.928Z,6.67
2022-11-19T21:16:39.812Z,8.20
2022-11-19T21:19:07.684Z,7.20
2022-11-19T21:21:35.850Z,8.60
2022-11-19T21:24:03.809Z,7.27
2022-11-19T21:26:31.788Z,8.30
2022-11-19T21:29:00.814Z,7.87
2022-11-19T21:31:39.582Z,7.90
2022-11-19T21:34:09.540Z,8.17
2022-11-19T21:36:37.735Z,8.40
2022-11-19T21:39:06.912Z,8.60
2022-11-19T21:41:35.076Z,7.97
2022-11-19T21:44:03.319Z,8.63
2022-11-19T21:46:33.064Z,8.43
2022-11-19T21:49:01.392Z,8.37
2022-11-19T21:51:29.316Z,8.70
2022-11-19T21:53:57.972Z,8.90
2022-11-19T21:56:27.202Z,8.90
2022-11-19T21:58:55.127Z,8.67
2022-11-19T22:01:23.079Z,8.20
2022-11-19T22:03:52.283Z,8.40
2022-11-19T22:06:20.163Z,7.90
2022-11-19T22:08:48.064Z,8.10
2022-11-19T22:11:31.417Z,9.73
2022-11-19T22:14:01.748Z,8.60
2022-11-19T22:16:30.498Z,7.80
2022-11-19T22:18:59.779Z,7.60
2022-11-19T22:21:28.894Z,8.63
2022-11-19T22:23:56.813Z,8.03
2022-11-19T22:26:24.931Z,7.27
2022-11-19T22:28:52.830Z,7.73
2022-11-19T22:31:20.686Z,8.90
2022-11-19T22:33:51.367Z,8.73
2022-11-19T22:36:22.191Z,8.90
2022-11-19T22:38:51.084Z,7.70
2022-11-19T22:41:20.980Z,8.17
2022-11-19T22:43:49.638Z,7.87
2022-11-19T22:46:18.004Z,8.87
2022-11-19T22:48:45.964Z,8.90
2022-11-19T22:51:16.217Z,8.67
2022-11-19T22:53:45.607Z,8.33
2022-11-19T22:56:14.989Z,7.97
2022-11-19T22:58:43.073Z,9.50
2022-11-19T23:01:17.424Z,8.13
2022-11-19T23:03:45.435Z,7.87
2022-11-19T23:06:13.335Z,7.77
2022-11-19T23:08:41.266Z,8.40
2022-11-19T23:11:10.721Z,7.53
2022-11-19T23:13:39.525Z,7.83
2022-11-19T23:16:09.530Z,8.00
2022-11-19T23:18:39.435Z,8.63
2022-11-19T23:21:10.370Z,9.07
2022-11-19T23:23:38.272Z,8.80
2022-11-19T23:26:08.350Z,8.80
2022-11-19T23:28:38.623Z,8.07
2022-11-19T23:31:07.662Z,8.03
2022-11-19T23:33:35.707Z,8.00
2022-11-19T23:36:04.978Z,8.40
2022-11-19T23:38:33.439Z,7.97
2022-11-19T23:41:01.948Z,8.43
2022-11-19T23:43:30.820Z,8.67
2022-11-19T23:46:06.515Z,7.87
2022-11-19T23:48:35.106Z,7.93
2022-11-19T23:51:03.838Z,8.60
2022-11-19T23:53:31.748Z,8.17
2022-11-19T23:56:00.480Z,8.10
2022-11-19T23:58:28.858Z,8.77
